Villa Belgrano, Argentina
Current Conditions -  °F | °C
As of 5:00 AM on Sunday 26 Oct 2014 (Local Time) from SANT Reporting Station
Clear Clear  
Wind Chill: 21°   Ceiling: Unl
Heat Index: 21°   Visibility: 5mi
Dew Point: 12°   Wind: 9mph
Humidity: 56%   Direction: 270°W
Pressure: 29.77"   Gusts: NA
Location:  27.52°S, 65.62°W
Report Text: SANT 260800Z 27008KT 8000 NSC 21/12 Q1008
Loading
Personal Weather Stations






























Interactive Weather Map
Tropical Storm Tracking
New forecast layout! Learn more

10-Day Weather Forecast

Advertisements
Track Severe Weather on mobile